Main page
METAR-TAF:

METAR-TAF

Airports :

St Mary's Airport

Isles of Scilly, England

latitude: 49-55N, longitude: 006-18W, elevation: 31 m

Current weather observation

The report was made 19 hours and 48 minutes ago, at 09:50 UTC
Wind 15 kt from the West/Northwest
Temperature 10°C
Humidity 87%
Pressure 1021 hPa
Visibility 10 km or more
Few clouds at a height of 1000 ft

METAR: EGHE 160950Z 30015KT 9999 FEW010 10/08 Q1021

Time: 05:38 (05:38 UTC)

Forecast

The report was made 18 hours and 35 minutes ago, at 11:03 UTC
Forecast valid from 16 at 12 UTC to 16 at 18 UTC
Wind 16 kt from the Northwest
Visibility 10 km or more
Scattered clouds at a height of 3000 ft

TAF: EGHE 161103Z 1612/1618 32016KT 9999 SCT030

Weather observations and forecasts of more than 4000 airports (METAR and TAF reports).

The available stations are represented by yellow and red dots on the map.

Hover mouse over dot to see the name of the station.

Then click to see weather observations and forecasts.

To change the map : click on the green buttons with a black cross to zoom in, on the green button with a dash to zoom out, or on the green arrows for adjacent maps.


METAR-TAF: